sensor_id;sensor_type;location;lat;lon;timestamp;temperature;humidity
52381;DHT22;38310;52.796;6.942;2023-11-21T00:00:15;8.20;99.90
52381;DHT22;38310;52.796;6.942;2023-11-21T00:02:43;8.30;99.90
52381;DHT22;38310;52.796;6.942;2023-11-21T00:05:12;8.30;99.90
52381;DHT22;38310;52.796;6.942;2023-11-21T00:07:40;8.20;99.90
52381;DHT22;38310;52.796;6.942;2023-11-21T00:10:06;8.30;99.90
52381;DHT22;38310;52.796;6.942;2023-11-21T00:12:34;8.30;99.90
52381;DHT22;38310;52.796;6.942;2023-11-21T00:15:00;8.30;99.90
52381;DHT22;38310;52.796;6.942;2023-11-21T00:17:27;8.20;99.90
52381;DHT22;38310;52.796;6.942;2023-11-21T00:19:53;8.30;99.90
52381;DHT22;38310;52.796;6.942;2023-11-21T00:22:19;9.30;99.90
52381;DHT22;38310;52.796;6.942;2023-11-21T00:24:45;8.30;99.90
52381;DHT22;38310;52.796;6.942;2023-11-21T00:27:11;8.30;99.90
52381;DHT22;38310;52.796;6.942;2023-11-21T00:29:40;8.30;99.90
52381;DHT22;38310;52.796;6.942;2023-11-21T00:32:06;9.30;99.90
52381;DHT22;38310;52.796;6.942;2023-11-21T00:34:32;8.30;99.90
52381;DHT22;38310;52.796;6.942;2023-11-21T00:36:58;8.20;99.90
52381;DHT22;38310;52.796;6.942;2023-11-21T00:39:24;8.20;99.90
52381;DHT22;38310;52.796;6.942;2023-11-21T00:41:52;8.20;99.90
52381;DHT22;38310;52.796;6.942;2023-11-21T00:44:18;9.00;99.90
52381;DHT22;38310;52.796;6.942;2023-11-21T00:46:44;8.20;99.90
52381;DHT22;38310;52.796;6.942;2023-11-21T00:49:10;8.40;99.90
52381;DHT22;38310;52.796;6.942;2023-11-21T00:51:35;8.20;99.90
52381;DHT22;38310;52.796;6.942;2023-11-21T00:54:07;8.20;99.90
52381;DHT22;38310;52.796;6.942;2023-11-21T00:56:33;8.40;99.90
52381;DHT22;38310;52.796;6.942;2023-11-21T00:58:59;8.30;99.90
52381;DHT22;38310;52.796;6.942;2023-11-21T01:01:25;8.30;99.90
52381;DHT22;38310;52.796;6.942;2023-11-21T01:03:51;7.90;99.90
52381;DHT22;38310;52.796;6.942;2023-11-21T01:06:17;8.30;99.90
52381;DHT22;38310;52.796;6.942;2023-11-21T01:08:44;8.40;99.90
52381;DHT22;38310;52.796;6.942;2023-11-21T01:11:10;9.10;99.90
52381;DHT22;38310;52.796;6.942;2023-11-21T01:13:40;8.50;99.90
52381;DHT22;38310;52.796;6.942;2023-11-21T01:16:07;8.40;99.90
52381;DHT22;38310;52.796;6.942;2023-11-21T01:18:33;8.40;99.90
52381;DHT22;38310;52.796;6.942;2023-11-21T01:20:59;8.30;99.90
52381;DHT22;38310;52.796;6.942;2023-11-21T01:23:27;8.40;99.90
52381;DHT22;38310;52.796;6.942;2023-11-21T01:25:56;8.30;99.90
52381;DHT22;38310;52.796;6.942;2023-11-21T01:28:22;8.40;99.90
52381;DHT22;38310;52.796;6.942;2023-11-21T01:30:48;8.40;99.90
52381;DHT22;38310;52.796;6.942;2023-11-21T01:33:14;8.40;99.90
52381;DHT22;38310;52.796;6.942;2023-11-21T01:35:41;8.50;99.90
52381;DHT22;38310;52.796;6.942;2023-11-21T01:38:08;8.40;99.90
52381;DHT22;38310;52.796;6.942;2023-11-21T01:40:34;8.50;99.90
52381;DHT22;38310;52.796;6.942;2023-11-21T01:43:00;9.20;99.90
52381;DHT22;38310;52.796;6.942;2023-11-21T01:45:27;9.10;99.90
52381;DHT22;38310;52.796;6.942;2023-11-21T01:47:57;9.00;99.90
52381;DHT22;38310;52.796;6.942;2023-11-21T01:50:24;8.40;99.90
52381;DHT22;38310;52.796;6.942;2023-11-21T01:52:50;8.50;99.90
52381;DHT22;38310;52.796;6.942;2023-11-21T01:55:18;8.40;99.90
52381;DHT22;38310;52.796;6.942;2023-11-21T01:57:45;8.50;99.90
52381;DHT22;38310;52.796;6.942;2023-11-21T02:00:12;8.50;99.90
52381;DHT22;38310;52.796;6.942;2023-11-21T02:02:49;8.50;99.90
52381;DHT22;38310;52.796;6.942;2023-11-21T02:05:15;9.20;99.90
52381;DHT22;38310;52.796;6.942;2023-11-21T02:07:44;8.40;99.90
52381;DHT22;38310;52.796;6.942;2023-11-21T02:10:11;8.50;99.90
52381;DHT22;38310;52.796;6.942;2023-11-21T02:12:44;8.40;99.90
52381;DHT22;38310;52.796;6.942;2023-11-21T02:15:13;8.40;99.90
52381;DHT22;38310;52.796;6.942;2023-11-21T02:17:49;8.50;99.90
52381;DHT22;38310;52.796;6.942;2023-11-21T02:20:20;7.50;99.90
52381;DHT22;38310;52.796;6.942;2023-11-21T02:25:15;8.50;99.90
52381;DHT22;38310;52.796;6.942;2023-11-21T02:27:41;8.40;99.90
52381;DHT22;38310;52.796;6.942;2023-11-21T02:30:09;8.40;99.90
52381;DHT22;38310;52.796;6.942;2023-11-21T02:32:43;8.40;99.90
52381;DHT22;38310;52.796;6.942;2023-11-21T02:35:09;8.50;99.90
52381;DHT22;38310;52.796;6.942;2023-11-21T02:37:35;8.70;99.90
52381;DHT22;38310;52.796;6.942;2023-11-21T02:40:01;8.50;99.90
52381;DHT22;38310;52.796;6.942;2023-11-21T02:42:30;8.40;99.90
52381;DHT22;38310;52.796;6.942;2023-11-21T02:44:55;8.50;99.90
52381;DHT22;38310;52.796;6.942;2023-11-21T02:47:22;8.50;99.90
52381;DHT22;38310;52.796;6.942;2023-11-21T02:49:49;8.40;99.90
52381;DHT22;38310;52.796;6.942;2023-11-21T02:52:15;8.40;99.90
52381;DHT22;38310;52.796;6.942;2023-11-21T02:54:41;8.40;99.90
52381;DHT22;38310;52.796;6.942;2023-11-21T02:57:08;9.20;99.90
52381;DHT22;38310;52.796;6.942;2023-11-21T02:59:34;8.50;99.90
52381;DHT22;38310;52.796;6.942;2023-11-21T03:02:00;8.40;99.90
52381;DHT22;38310;52.796;6.942;2023-11-21T03:04:26;8.40;99.90
52381;DHT22;38310;52.796;6.942;2023-11-21T03:06:52;8.40;99.90
52381;DHT22;38310;52.796;6.942;2023-11-21T03:09:17;8.40;99.90
52381;DHT22;38310;52.796;6.942;2023-11-21T03:11:43;8.40;99.90
52381;DHT22;38310;52.796;6.942;2023-11-21T03:14:09;8.40;99.90
52381;DHT22;38310;52.796;6.942;2023-11-21T03:16:35;8.40;99.90
52381;DHT22;38310;52.796;6.942;2023-11-21T03:19:01;8.40;99.90
52381;DHT22;38310;52.796;6.942;2023-11-21T03:21:26;8.90;99.90
52381;DHT22;38310;52.796;6.942;2023-11-21T03:23:52;8.40;99.90
52381;DHT22;38310;52.796;6.942;2023-11-21T03:26:19;8.40;99.90
52381;DHT22;38310;52.796;6.942;2023-11-21T03:28:44;9.00;99.90
52381;DHT22;38310;52.796;6.942;2023-11-21T03:31:11;8.40;99.90
52381;DHT22;38310;52.796;6.942;2023-11-21T03:33:37;8.40;99.90
52381;DHT22;38310;52.796;6.942;2023-11-21T03:36:03;9.30;99.90
52381;DHT22;38310;52.796;6.942;2023-11-21T03:38:29;8.50;99.90
52381;DHT22;38310;52.796;6.942;2023-11-21T03:40:55;8.40;99.90
52381;DHT22;38310;52.796;6.942;2023-11-21T03:43:22;8.40;99.90
52381;DHT22;38310;52.796;6.942;2023-11-21T03:45:48;8.10;99.90
52381;DHT22;38310;52.796;6.942;2023-11-21T03:48:14;8.50;99.90
52381;DHT22;38310;52.796;6.942;2023-11-21T03:50:39;8.40;99.90
52381;DHT22;38310;52.796;6.942;2023-11-21T03:53:05;8.60;99.90
52381;DHT22;38310;52.796;6.942;2023-11-21T03:55:31;8.40;99.90
52381;DHT22;38310;52.796;6.942;2023-11-21T03:57:58;8.40;99.90
52381;DHT22;38310;52.796;6.942;2023-11-21T04:00:25;8.40;99.90
52381;DHT22;38310;52.796;6.942;2023-11-21T04:02:52;8.40;99.90
52381;DHT22;38310;52.796;6.942;2023-11-21T04:05:20;8.40;99.90
52381;DHT22;38310;52.796;6.942;2023-11-21T04:07:51;8.40;99.90
52381;DHT22;38310;52.796;6.942;2023-11-21T04:10:17;8.40;99.90
52381;DHT22;38310;52.796;6.942;2023-11-21T04:12:44;8.40;99.90
52381;DHT22;38310;52.796;6.942;2023-11-21T04:15:11;8.40;99.90
52381;DHT22;38310;52.796;6.942;2023-11-21T04:17:39;8.40;99.90
52381;DHT22;38310;52.796;6.942;2023-11-21T04:20:05;8.80;99.90
52381;DHT22;38310;52.796;6.942;2023-11-21T04:22:36;8.40;99.90
52381;DHT22;38310;52.796;6.942;2023-11-21T04:25:09;8.40;99.90
52381;DHT22;38310;52.796;6.942;2023-11-21T04:27:36;8.30;99.90
52381;DHT22;38310;52.796;6.942;2023-11-21T04:30:02;8.60;99.90
52381;DHT22;38310;52.796;6.942;2023-11-21T04:32:28;8.30;99.90
52381;DHT22;38310;52.796;6.942;2023-11-21T04:34:54;8.30;99.90
52381;DHT22;38310;52.796;6.942;2023-11-21T04:37:21;9.40;99.90
52381;DHT22;38310;52.796;6.942;2023-11-21T04:39:47;8.30;99.90
52381;DHT22;38310;52.796;6.942;2023-11-21T04:42:12;8.30;99.90
52381;DHT22;38310;52.796;6.942;2023-11-21T04:44:38;8.20;99.90
52381;DHT22;38310;52.796;6.942;2023-11-21T04:47:06;8.50;99.90
52381;DHT22;38310;52.796;6.942;2023-11-21T04:49:33;8.30;99.90
52381;DHT22;38310;52.796;6.942;2023-11-21T04:51:59;8.30;99.90
52381;DHT22;38310;52.796;6.942;2023-11-21T04:54:25;8.30;99.90
52381;DHT22;38310;52.796;6.942;2023-11-21T04:56:50;8.70;99.90
52381;DHT22;38310;52.796;6.942;2023-11-21T04:59:16;8.30;99.90
52381;DHT22;38310;52.796;6.942;2023-11-21T05:01:42;8.30;99.90
52381;DHT22;38310;52.796;6.942;2023-11-21T05:04:08;8.30;99.90
52381;DHT22;38310;52.796;6.942;2023-11-21T05:06:34;8.30;99.90
52381;DHT22;38310;52.796;6.942;2023-11-21T05:09:00;8.30;99.90
52381;DHT22;38310;52.796;6.942;2023-11-21T05:11:27;8.50;99.90
52381;DHT22;38310;52.796;6.942;2023-11-21T05:13:54;8.30;99.90
52381;DHT22;38310;52.796;6.942;2023-11-21T05:16:26;8.30;99.90
52381;DHT22;38310;52.796;6.942;2023-11-21T05:18:53;8.40;99.90
52381;DHT22;38310;52.796;6.942;2023-11-21T05:21:21;8.40;99.90
52381;DHT22;38310;52.796;6.942;2023-11-21T05:23:47;8.40;99.90
52381;DHT22;38310;52.796;6.942;2023-11-21T05:26:13;8.30;99.90
52381;DHT22;38310;52.796;6.942;2023-11-21T05:28:39;8.40;99.90
52381;DHT22;38310;52.796;6.942;2023-11-21T05:31:04;8.30;99.90
52381;DHT22;38310;52.796;6.942;2023-11-21T05:33:30;8.40;99.90
52381;DHT22;38310;52.796;6.942;2023-11-21T05:35:55;8.40;99.90
52381;DHT22;38310;52.796;6.942;2023-11-21T05:38:21;9.30;99.90
52381;DHT22;38310;52.796;6.942;2023-11-21T05:40:47;9.50;99.90
52381;DHT22;38310;52.796;6.942;2023-11-21T05:43:13;8.40;99.90
52381;DHT22;38310;52.796;6.942;2023-11-21T05:45:40;9.30;99.90
52381;DHT22;38310;52.796;6.942;2023-11-21T05:48:06;8.50;99.90
52381;DHT22;38310;52.796;6.942;2023-11-21T05:50:32;8.40;99.90
52381;DHT22;38310;52.796;6.942;2023-11-21T05:52:57;8.40;99.90
52381;DHT22;38310;52.796;6.942;2023-11-21T05:55:25;9.10;99.90
52381;DHT22;38310;52.796;6.942;2023-11-21T05:57:51;8.40;99.90
52381;DHT22;38310;52.796;6.942;2023-11-21T06:00:17;8.50;99.90
52381;DHT22;38310;52.796;6.942;2023-11-21T06:02:50;8.50;99.90
52381;DHT22;38310;52.796;6.942;2023-11-21T06:05:19;8.40;99.90
52381;DHT22;38310;52.796;6.942;2023-11-21T06:07:45;8.40;99.90
52381;DHT22;38310;52.796;6.942;2023-11-21T06:10:12;8.50;99.90
52381;DHT22;38310;52.796;6.942;2023-11-21T06:12:43;8.40;99.90
52381;DHT22;38310;52.796;6.942;2023-11-21T06:15:10;8.50;99.90
52381;DHT22;38310;52.796;6.942;2023-11-21T06:17:39;8.40;99.90
52381;DHT22;38310;52.796;6.942;2023-11-21T06:20:06;8.50;99.90
52381;DHT22;38310;52.796;6.942;2023-11-21T06:22:41;8.40;99.90
52381;DHT22;38310;52.796;6.942;2023-11-21T06:25:07;8.50;99.90
52381;DHT22;38310;52.796;6.942;2023-11-21T06:27:37;8.50;99.90
52381;DHT22;38310;52.796;6.942;2023-11-21T06:30:05;8.40;99.90
52381;DHT22;38310;52.796;6.942;2023-11-21T06:32:33;8.50;99.90
52381;DHT22;38310;52.796;6.942;2023-11-21T06:35:00;8.50;99.90
52381;DHT22;38310;52.796;6.942;2023-11-21T06:37:29;8.50;99.90
52381;DHT22;38310;52.796;6.942;2023-11-21T06:39:56;8.50;99.90
52381;DHT22;38310;52.796;6.942;2023-11-21T06:42:24;8.50;99.90
52381;DHT22;38310;52.796;6.942;2023-11-21T06:44:50;8.50;99.90
52381;DHT22;38310;52.796;6.942;2023-11-21T06:47:20;8.50;99.90
52381;DHT22;38310;52.796;6.942;2023-11-21T06:49:46;8.50;99.90
52381;DHT22;38310;52.796;6.942;2023-11-21T06:52:15;8.50;99.90
52381;DHT22;38310;52.796;6.942;2023-11-21T06:54:40;8.50;99.90
52381;DHT22;38310;52.796;6.942;2023-11-21T06:57:06;8.50;99.90
52381;DHT22;38310;52.796;6.942;2023-11-21T06:59:32;8.50;99.90
52381;DHT22;38310;52.796;6.942;2023-11-21T07:01:57;8.60;99.90
52381;DHT22;38310;52.796;6.942;2023-11-21T07:04:23;8.60;99.90
52381;DHT22;38310;52.796;6.942;2023-11-21T07:06:54;8.60;99.90
52381;DHT22;38310;52.796;6.942;2023-11-21T07:09:20;8.50;99.90
52381;DHT22;38310;52.796;6.942;2023-11-21T07:11:49;8.60;99.90
52381;DHT22;38310;52.796;6.942;2023-11-21T07:14:15;8.50;99.90
52381;DHT22;38310;52.796;6.942;2023-11-21T07:16:42;8.80;99.90
52381;DHT22;38310;52.796;6.942;2023-11-21T07:19:08;8.50;99.90
52381;DHT22;38310;52.796;6.942;2023-11-21T07:21:38;8.80;99.90
52381;DHT22;38310;52.796;6.942;2023-11-21T07:24:05;8.60;99.90
52381;DHT22;38310;52.796;6.942;2023-11-21T07:26:32;7.70;99.90
52381;DHT22;38310;52.796;6.942;2023-11-21T07:28:59;8.60;99.90
52381;DHT22;38310;52.796;6.942;2023-11-21T07:31:25;8.60;99.90
52381;DHT22;38310;52.796;6.942;2023-11-21T07:33:51;8.70;99.90
52381;DHT22;38310;52.796;6.942;2023-11-21T07:36:18;8.60;99.90
52381;DHT22;38310;52.796;6.942;2023-11-21T07:38:44;8.70;99.90
52381;DHT22;38310;52.796;6.942;2023-11-21T07:41:10;8.70;99.90
52381;DHT22;38310;52.796;6.942;2023-11-21T07:43:36;8.60;99.90
52381;DHT22;38310;52.796;6.942;2023-11-21T07:46:03;8.70;99.90
52381;DHT22;38310;52.796;6.942;2023-11-21T07:48:29;8.80;99.90
52381;DHT22;38310;52.796;6.942;2023-11-21T07:50:56;8.70;99.90
52381;DHT22;38310;52.796;6.942;2023-11-21T07:53:21;8.70;99.90
52381;DHT22;38310;52.796;6.942;2023-11-21T07:55:47;8.70;99.90
52381;DHT22;38310;52.796;6.942;2023-11-21T07:58:13;9.10;99.90
52381;DHT22;38310;52.796;6.942;2023-11-21T08:00:42;8.70;99.90
52381;DHT22;38310;52.796;6.942;2023-11-21T08:03:07;8.70;99.90
52381;DHT22;38310;52.796;6.942;2023-11-21T08:05:33;8.80;99.90
52381;DHT22;38310;52.796;6.942;2023-11-21T08:08:00;8.70;99.90
52381;DHT22;38310;52.796;6.942;2023-11-21T08:10:25;8.80;99.90
52381;DHT22;38310;52.796;6.942;2023-11-21T08:12:51;8.80;99.90
52381;DHT22;38310;52.796;6.942;2023-11-21T08:15:18;8.90;99.90
52381;DHT22;38310;52.796;6.942;2023-11-21T08:17:43;8.90;99.90
52381;DHT22;38310;52.796;6.942;2023-11-21T08:20:10;9.10;99.90
52381;DHT22;38310;52.796;6.942;2023-11-21T08:22:36;8.90;99.90
52381;DHT22;38310;52.796;6.942;2023-11-21T08:25:02;9.00;99.90
52381;DHT22;38310;52.796;6.942;2023-11-21T08:27:30;9.00;99.90
52381;DHT22;38310;52.796;6.942;2023-11-21T08:29:55;9.00;99.90
52381;DHT22;38310;52.796;6.942;2023-11-21T08:32:22;9.00;99.90
52381;DHT22;38310;52.796;6.942;2023-11-21T08:34:48;9.10;99.90
52381;DHT22;38310;52.796;6.942;2023-11-21T08:37:16;9.00;99.90
52381;DHT22;38310;52.796;6.942;2023-11-21T08:39:47;9.00;99.90
52381;DHT22;38310;52.796;6.942;2023-11-21T08:42:14;9.10;99.90
52381;DHT22;38310;52.796;6.942;2023-11-21T08:44:40;9.00;99.90
52381;DHT22;38310;52.796;6.942;2023-11-21T08:47:06;9.00;99.90
52381;DHT22;38310;52.796;6.942;2023-11-21T08:49:33;9.00;99.90
52381;DHT22;38310;52.796;6.942;2023-11-21T08:51:59;9.20;99.90
52381;DHT22;38310;52.796;6.942;2023-11-21T08:54:25;9.10;99.90
52381;DHT22;38310;52.796;6.942;2023-11-21T08:56:54;9.10;99.90
52381;DHT22;38310;52.796;6.942;2023-11-21T08:59:21;9.00;99.90
52381;DHT22;38310;52.796;6.942;2023-11-21T09:01:47;9.00;99.90
52381;DHT22;38310;52.796;6.942;2023-11-21T09:04:13;8.90;99.90
52381;DHT22;38310;52.796;6.942;2023-11-21T09:06:39;9.00;99.90
52381;DHT22;38310;52.796;6.942;2023-11-21T09:09:05;8.90;99.90
52381;DHT22;38310;52.796;6.942;2023-11-21T09:11:34;8.90;99.90
52381;DHT22;38310;52.796;6.942;2023-11-21T09:14:06;8.90;99.90
52381;DHT22;38310;52.796;6.942;2023-11-21T09:16:32;9.30;99.90
52381;DHT22;38310;52.796;6.942;2023-11-21T09:19:04;8.90;99.90
52381;DHT22;38310;52.796;6.942;2023-11-21T09:21:31;8.80;99.90
52381;DHT22;38310;52.796;6.942;2023-11-21T09:23:56;8.80;99.90
52381;DHT22;38310;52.796;6.942;2023-11-21T09:26:22;8.80;99.90
52381;DHT22;38310;52.796;6.942;2023-11-21T09:28:48;8.80;99.90
52381;DHT22;38310;52.796;6.942;2023-11-21T09:31:13;8.70;99.90
52381;DHT22;38310;52.796;6.942;2023-11-21T09:33:43;8.70;99.90
52381;DHT22;38310;52.796;6.942;2023-11-21T09:36:12;8.70;99.90
52381;DHT22;38310;52.796;6.942;2023-11-21T09:38:41;8.60;99.90
52381;DHT22;38310;52.796;6.942;2023-11-21T09:41:17;8.60;99.90
52381;DHT22;38310;52.796;6.942;2023-11-21T09:43:46;8.70;99.90
52381;DHT22;38310;52.796;6.942;2023-11-21T09:46:13;8.60;99.90
52381;DHT22;38310;52.796;6.942;2023-11-21T09:48:48;8.60;99.90
52381;DHT22;38310;52.796;6.942;2023-11-21T09:51:18;8.60;99.90
52381;DHT22;38310;52.796;6.942;2023-11-21T09:53:48;8.60;99.90
52381;DHT22;38310;52.796;6.942;2023-11-21T09:56:15;8.60;99.90
52381;DHT22;38310;52.796;6.942;2023-11-21T09:58:45;8.60;99.90
52381;DHT22;38310;52.796;6.942;2023-11-21T10:01:11;8.60;99.90
52381;DHT22;38310;52.796;6.942;2023-11-21T10:03:38;8.70;99.90
52381;DHT22;38310;52.796;6.942;2023-11-21T10:06:05;8.60;99.90
52381;DHT22;38310;52.796;6.942;2023-11-21T10:08:32;8.60;99.90
52381;DHT22;38310;52.796;6.942;2023-11-21T10:10:58;8.60;99.90
52381;DHT22;38310;52.796;6.942;2023-11-21T10:13:26;8.60;99.90
52381;DHT22;38310;52.796;6.942;2023-11-21T10:15:55;8.90;99.90
52381;DHT22;38310;52.796;6.942;2023-11-21T10:18:26;8.60;99.90
52381;DHT22;38310;52.796;6.942;2023-11-21T10:20:53;8.60;99.90
52381;DHT22;38310;52.796;6.942;2023-11-21T10:23:20;8.60;99.90
52381;DHT22;38310;52.796;6.942;2023-11-21T10:25:47;8.60;99.90
52381;DHT22;38310;52.796;6.942;2023-11-21T10:28:13;8.60;99.90
52381;DHT22;38310;52.796;6.942;2023-11-21T10:30:39;8.60;99.90
52381;DHT22;38310;52.796;6.942;2023-11-21T10:33:06;8.00;99.90
52381;DHT22;38310;52.796;6.942;2023-11-21T10:35:49;8.50;99.90
52381;DHT22;38310;52.796;6.942;2023-11-21T10:38:20;8.60;99.90
52381;DHT22;38310;52.796;6.942;2023-11-21T10:40:52;8.60;99.90
52381;DHT22;38310;52.796;6.942;2023-11-21T10:43:18;8.60;99.90
52381;DHT22;38310;52.796;6.942;2023-11-21T10:45:44;8.60;99.90
52381;DHT22;38310;52.796;6.942;2023-11-21T10:48:12;8.70;99.90
52381;DHT22;38310;52.796;6.942;2023-11-21T10:50:41;8.70;99.90
52381;DHT22;38310;52.796;6.942;2023-11-21T10:53:07;8.70;99.90
52381;DHT22;38310;52.796;6.942;2023-11-21T10:55:34;9.20;99.90
52381;DHT22;38310;52.796;6.942;2023-11-21T10:58:02;8.80;99.90
52381;DHT22;38310;52.796;6.942;2023-11-21T11:00:29;8.80;99.90
52381;DHT22;38310;52.796;6.942;2023-11-21T11:02:55;8.80;99.90
52381;DHT22;38310;52.796;6.942;2023-11-21T11:05:26;8.70;99.90
52381;DHT22;38310;52.796;6.942;2023-11-21T11:08:04;8.80;99.90
52381;DHT22;38310;52.796;6.942;2023-11-21T11:10:31;8.80;99.90
52381;DHT22;38310;52.796;6.942;2023-11-21T11:12:58;8.80;99.90
52381;DHT22;38310;52.796;6.942;2023-11-21T11:15:27;8.90;99.90
52381;DHT22;38310;52.796;6.942;2023-11-21T11:17:54;8.80;99.90
52381;DHT22;38310;52.796;6.942;2023-11-21T11:20:27;8.90;99.90
52381;DHT22;38310;52.796;6.942;2023-11-21T11:28:19;8.80;99.90
52381;DHT22;38310;52.796;6.942;2023-11-21T11:31:10;8.90;99.90
52381;DHT22;38310;52.796;6.942;2023-11-21T11:33:51;8.90;99.90
52381;DHT22;38310;52.796;6.942;2023-11-21T11:36:38;8.90;99.90
52381;DHT22;38310;52.796;6.942;2023-11-21T11:39:29;8.90;99.90
52381;DHT22;38310;52.796;6.942;2023-11-21T11:41:57;8.80;99.90
52381;DHT22;38310;52.796;6.942;2023-11-21T11:47:22;8.90;99.90
52381;DHT22;38310;52.796;6.942;2023-11-21T11:50:07;8.90;99.90
52381;DHT22;38310;52.796;6.942;2023-11-21T11:55:09;9.00;99.90
52381;DHT22;38310;52.796;6.942;2023-11-21T11:57:35;9.10;99.90
52381;DHT22;38310;52.796;6.942;2023-11-21T12:02:57;9.10;99.90
52381;DHT22;38310;52.796;6.942;2023-11-21T12:05:25;9.10;99.90
52381;DHT22;38310;52.796;6.942;2023-11-21T12:07:53;9.10;99.90
52381;DHT22;38310;52.796;6.942;2023-11-21T12:10:21;9.20;99.90
52381;DHT22;38310;52.796;6.942;2023-11-21T12:12:55;9.20;99.90
52381;DHT22;38310;52.796;6.942;2023-11-21T12:15:21;9.20;99.90
52381;DHT22;38310;52.796;6.942;2023-11-21T12:17:48;9.10;99.90
52381;DHT22;38310;52.796;6.942;2023-11-21T12:20:19;9.10;99.90
52381;DHT22;38310;52.796;6.942;2023-11-21T12:22:46;9.10;99.90
52381;DHT22;38310;52.796;6.942;2023-11-21T12:25:20;9.40;99.90
52381;DHT22;38310;52.796;6.942;2023-11-21T12:27:49;9.20;99.90
52381;DHT22;38310;52.796;6.942;2023-11-21T12:30:16;9.80;99.90
52381;DHT22;38310;52.796;6.942;2023-11-21T12:32:44;9.20;99.90
52381;DHT22;38310;52.796;6.942;2023-11-21T12:35:11;9.00;99.90
52381;DHT22;38310;52.796;6.942;2023-11-21T12:37:38;9.10;99.90
52381;DHT22;38310;52.796;6.942;2023-11-21T12:40:06;9.10;99.90
52381;DHT22;38310;52.796;6.942;2023-11-21T12:42:33;9.00;99.90
52381;DHT22;38310;52.796;6.942;2023-11-21T12:45:27;9.00;99.90
52381;DHT22;38310;52.796;6.942;2023-11-21T12:47:59;9.00;99.90
52381;DHT22;38310;52.796;6.942;2023-11-21T12:50:27;9.10;99.90
52381;DHT22;38310;52.796;6.942;2023-11-21T12:53:17;9.10;99.90
52381;DHT22;38310;52.796;6.942;2023-11-21T12:55:44;9.10;99.90
52381;DHT22;38310;52.796;6.942;2023-11-21T12:58:16;9.10;99.90
52381;DHT22;38310;52.796;6.942;2023-11-21T13:00:46;9.00;99.90
52381;DHT22;38310;52.796;6.942;2023-11-21T13:03:13;9.10;99.90
52381;DHT22;38310;52.796;6.942;2023-11-21T13:05:46;9.10;99.90
52381;DHT22;38310;52.796;6.942;2023-11-21T13:08:14;9.10;99.90
52381;DHT22;38310;52.796;6.942;2023-11-21T13:10:44;9.00;99.90
52381;DHT22;38310;52.796;6.942;2023-11-21T13:13:13;9.00;99.90
52381;DHT22;38310;52.796;6.942;2023-11-21T13:15:49;8.90;99.90
52381;DHT22;38310;52.796;6.942;2023-11-21T13:18:15;8.90;99.90
52381;DHT22;38310;52.796;6.942;2023-11-21T13:20:42;8.90;99.90
52381;DHT22;38310;52.796;6.942;2023-11-21T13:23:10;8.90;99.90
52381;DHT22;38310;52.796;6.942;2023-11-21T13:25:39;8.90;99.90
52381;DHT22;38310;52.796;6.942;2023-11-21T13:28:08;9.70;99.90
52381;DHT22;38310;52.796;6.942;2023-11-21T13:30:38;9.20;99.90
52381;DHT22;38310;52.796;6.942;2023-11-21T13:33:06;9.50;99.90
52381;DHT22;38310;52.796;6.942;2023-11-21T13:35:34;8.30;99.90
52381;DHT22;38310;52.796;6.942;2023-11-21T13:38:08;9.10;99.90
52381;DHT22;38310;52.796;6.942;2023-11-21T13:40:35;9.10;99.90
52381;DHT22;38310;52.796;6.942;2023-11-21T13:43:15;9.10;99.90
52381;DHT22;38310;52.796;6.942;2023-11-21T13:45:43;9.00;99.90
52381;DHT22;38310;52.796;6.942;2023-11-21T13:48:10;9.00;99.90
52381;DHT22;38310;52.796;6.942;2023-11-21T13:50:42;8.90;99.90
52381;DHT22;38310;52.796;6.942;2023-11-21T13:53:24;8.90;99.90
52381;DHT22;38310;52.796;6.942;2023-11-21T13:55:54;8.90;99.90
52381;DHT22;38310;52.796;6.942;2023-11-21T13:58:21;8.80;99.90
52381;DHT22;38310;52.796;6.942;2023-11-21T14:01:02;8.80;99.90
52381;DHT22;38310;52.796;6.942;2023-11-21T14:03:31;8.80;99.90
52381;DHT22;38310;52.796;6.942;2023-11-21T14:06:10;8.80;99.90
52381;DHT22;38310;52.796;6.942;2023-11-21T14:08:41;8.80;99.90
52381;DHT22;38310;52.796;6.942;2023-11-21T14:11:07;8.70;99.90
52381;DHT22;38310;52.796;6.942;2023-11-21T14:13:33;8.70;99.90
52381;DHT22;38310;52.796;6.942;2023-11-21T14:15:59;8.80;99.90
52381;DHT22;38310;52.796;6.942;2023-11-21T14:18:27;8.70;99.90
52381;DHT22;38310;52.796;6.942;2023-11-21T14:21:01;8.70;99.90
52381;DHT22;38310;52.796;6.942;2023-11-21T14:23:27;8.70;99.90
52381;DHT22;38310;52.796;6.942;2023-11-21T14:25:55;8.70;99.90
52381;DHT22;38310;52.796;6.942;2023-11-21T14:28:21;8.80;99.90
52381;DHT22;38310;52.796;6.942;2023-11-21T14:30:48;8.50;99.90
52381;DHT22;38310;52.796;6.942;2023-11-21T14:33:14;8.60;99.90
52381;DHT22;38310;52.796;6.942;2023-11-21T14:35:42;8.50;99.90
52381;DHT22;38310;52.796;6.942;2023-11-21T14:38:09;8.60;99.90
52381;DHT22;38310;52.796;6.942;2023-11-21T14:40:36;8.50;99.90
52381;DHT22;38310;52.796;6.942;2023-11-21T14:43:02;8.50;99.90
52381;DHT22;38310;52.796;6.942;2023-11-21T14:45:34;8.50;99.90
52381;DHT22;38310;52.796;6.942;2023-11-21T14:48:01;8.40;99.90
52381;DHT22;38310;52.796;6.942;2023-11-21T14:50:51;8.40;99.90
52381;DHT22;38310;52.796;6.942;2023-11-21T14:53:29;8.40;99.90
52381;DHT22;38310;52.796;6.942;2023-11-21T14:56:14;8.50;99.90
52381;DHT22;38310;52.796;6.942;2023-11-21T14:58:48;8.30;99.90
52381;DHT22;38310;52.796;6.942;2023-11-21T15:01:14;8.30;99.90
52381;DHT22;38310;52.796;6.942;2023-11-21T15:03:47;8.30;99.90
52381;DHT22;38310;52.796;6.942;2023-11-21T15:06:15;8.30;99.90
52381;DHT22;38310;52.796;6.942;2023-11-21T15:08:56;8.40;99.90
52381;DHT22;38310;52.796;6.942;2023-11-21T15:11:41;8.30;99.90
52381;DHT22;38310;52.796;6.942;2023-11-21T15:14:07;8.20;99.90
52381;DHT22;38310;52.796;6.942;2023-11-21T15:16:35;8.40;99.90
52381;DHT22;38310;52.796;6.942;2023-11-21T15:19:07;8.10;99.90
52381;DHT22;38310;52.796;6.942;2023-11-21T15:21:36;8.10;99.90
52381;DHT22;38310;52.796;6.942;2023-11-21T15:24:01;8.10;99.90
52381;DHT22;38310;52.796;6.942;2023-11-21T15:26:29;8.10;99.90
52381;DHT22;38310;52.796;6.942;2023-11-21T15:28:55;8.00;99.90
52381;DHT22;38310;52.796;6.942;2023-11-21T15:31:22;8.00;99.90
52381;DHT22;38310;52.796;6.942;2023-11-21T15:33:51;8.00;99.90
52381;DHT22;38310;52.796;6.942;2023-11-21T15:36:18;8.80;99.90
52381;DHT22;38310;52.796;6.942;2023-11-21T15:38:45;7.90;99.90
52381;DHT22;38310;52.796;6.942;2023-11-21T15:41:10;7.90;99.90
52381;DHT22;38310;52.796;6.942;2023-11-21T15:43:37;7.90;99.90
52381;DHT22;38310;52.796;6.942;2023-11-21T15:46:03;7.80;99.90
52381;DHT22;38310;52.796;6.942;2023-11-21T15:48:36;7.80;99.90
52381;DHT22;38310;52.796;6.942;2023-11-21T15:51:09;7.70;99.90
52381;DHT22;38310;52.796;6.942;2023-11-21T15:53:38;7.70;99.90
52381;DHT22;38310;52.796;6.942;2023-11-21T15:56:04;7.70;99.90
52381;DHT22;38310;52.796;6.942;2023-11-21T15:58:41;7.70;99.90
52381;DHT22;38310;52.796;6.942;2023-11-21T16:01:11;7.70;99.90
52381;DHT22;38310;52.796;6.942;2023-11-21T16:03:39;7.60;99.90
52381;DHT22;38310;52.796;6.942;2023-11-21T16:06:05;7.90;99.90